Time;durP1;ratioP1;P1;durP2;ratioP2;P2;SDS_P1;SDS_P2;PMS_P1;PMS_P2;Temp;Humidity;BMP_temperature;BMP_pressure;BME280_temperature;BME280_humidity;BME280_pressure;Samples;Min_cycle;Max_cycle;Signal;HPM_P1;HPM_P2
2022/10/25 00:01:25;;;;;;;10.57;1.48;;;;;;;;;;5075083;28;19935;-69
2022/10/25 00:03:52;;;;;;;8.95;1.95;;;;;;;;;;5074951;28;20044;-69
2022/10/25 00:06:18;;;;;;;4.90;1.33;;;;;;;;;;5075142;28;20052;-70
2022/10/25 00:08:45;;;;;;;6.78;1.15;;;;;;;;;;5075032;28;20389;-69
2022/10/25 00:11:24;;;;;;;6.60;1.45;;;;;;;;;;5074947;28;20400;-69
2022/10/25 00:13:51;;;;;;;8.23;1.30;;;;;;;;;;5074999;28;20045;-70
2022/10/25 00:16:18;;;;;;;;;;;;;;;;;;5075114;28;20047;-70
2022/10/25 00:18:44;;;;;;;9.00;1.30;;;;;;;;;;5074568;28;19924;-70
2022/10/25 00:21:11;;;;;;;5.43;1.27;;;;;;;;;;5074810;28;20060;-70
2022/10/25 00:23:37;;;;;;;10.20;1.65;;;;;;;;;;5075067;28;20071;-70
2022/10/25 00:26:05;;;;;;;7.82;1.40;;;;;;;;;;5074750;28;20052;-69
2022/10/25 00:28:31;;;;;;;5.63;1.45;;;;;;;;;;5074501;28;20049;-69
2022/10/25 00:31:01;;;;;;;8.88;1.40;;;;;;;;;;5074374;28;20037;-70
2022/10/25 00:33:28;;;;;;;6.53;1.52;;;;;;;;;;5063111;28;20052;-69
2022/10/25 00:35:55;;;;;;;10.50;1.95;;;;;;;;;;5071307;28;20040;-69
2022/10/25 00:38:21;;;;;;;5.10;1.40;;;;;;;;;;5074286;28;20495;-70
2022/10/25 00:40:48;;;;;;;8.52;1.73;;;;;;;;;;5074473;28;20083;-70
2022/10/25 00:43:34;;;;;;;9.48;1.98;;;;;;;;;;5074447;28;20056;-70
2022/10/25 00:46:03;;;;;;;7.47;1.27;;;;;;;;;;5073630;28;20064;-70
2022/10/25 00:48:30;;;;;;;5.90;1.23;;;;;;;;;;5074572;28;20407;-70
2022/10/25 00:50:56;;;;;;;7.28;1.80;;;;;;;;;;5074282;28;20044;-70
2022/10/25 00:53:26;;;;;;;8.35;1.58;;;;;;;;;;5073928;28;20476;-70
2022/10/25 00:56:06;;;;;;;7.47;1.63;;;;;;;;;;5074056;28;20586;-70
2022/10/25 00:58:34;;;;;;;10.43;1.33;;;;;;;;;;5073663;28;20045;-70
2022/10/25 01:01:02;;;;;;;9.32;1.45;;;;;;;;;;5073807;28;20510;-70
2022/10/25 01:03:28;;;;;;;8.15;1.63;;;;;;;;;;5072515;28;20056;-70
2022/10/25 01:05:56;;;;;;;6.05;1.10;;;;;;;;;;5073793;28;20408;-70
2022/10/25 01:08:22;;;;;;;;;;;;;;;;;;5074279;28;20044;-70
2022/10/25 01:10:49;;;;;;;7.32;1.17;;;;;;;;;;5073670;28;19920;-70
2022/10/25 01:13:15;;;;;;;7.97;1.25;;;;;;;;;;5073905;28;20045;-70
2022/10/25 01:15:48;;;;;;;10.50;1.63;;;;;;;;;;5073846;28;20048;-70
2022/10/25 01:18:22;;;;;;;5.30;1.35;;;;;;;;;;5073881;28;20054;-70
2022/10/25 01:20:48;;;;;;;6.63;1.23;;;;;;;;;;5073643;28;20048;-70
2022/10/25 01:23:27;;;;;;;6.88;1.50;;;;;;;;;;5072345;28;20428;-70
2022/10/25 01:26:13;;;;;;;9.88;1.85;;;;;;;;;;5072074;28;20546;-70
2022/10/25 01:28:58;;;;;;;5.20;1.08;;;;;;;;;;5073406;28;20052;-70
2022/10/25 01:31:33;;;;;;;7.75;1.40;;;;;;;;;;5073294;28;20052;-70
2022/10/25 01:34:02;;;;;;;6.32;1.30;;;;;;;;;;5072029;28;20074;-70
2022/10/25 01:36:28;;;;;;;12.45;1.58;;;;;;;;;;5073432;28;20067;-70
2022/10/25 01:39:07;;;;;;;8.48;1.13;;;;;;;;;;5073088;28;20045;-70
2022/10/25 01:41:36;;;;;;;7.53;1.58;;;;;;;;;;5072159;28;20041;-70
2022/10/25 01:44:12;;;;;;;6.75;1.65;;;;;;;;;;5071577;28;20416;-70
2022/10/25 01:46:58;;;;;;;4.95;1.20;;;;;;;;;;5072928;28;20045;-70
2022/10/25 01:49:27;;;;;;;10.23;1.60;;;;;;;;;;5073121;28;20048;-70
2022/10/25 01:51:53;;;;;;;10.15;1.42;;;;;;;;;;5072910;28;20054;-70
2022/10/25 01:54:21;;;;;;;10.63;1.67;;;;;;;;;;5066242;28;20044;-70
2022/10/25 01:57:02;;;;;;;7.25;1.48;;;;;;;;;;5072717;28;20404;-70
2022/10/25 01:59:42;;;;;;;10.15;1.48;;;;;;;;;;5072422;28;20510;-70
2022/10/25 02:02:16;;;;;;;10.10;1.42;;;;;;;;;;5072798;28;20052;-69
2022/10/25 02:04:48;;;;;;;8.60;1.20;;;;;;;;;;5072609;28;20049;-70
2022/10/25 02:07:19;;;;;;;7.68;1.08;;;;;;;;;;5072654;28;20078;-69
2022/10/25 02:09:58;;;;;;;8.18;1.20;;;;;;;;;;5072408;28;20492;-70
2022/10/25 02:12:29;;;;;;;7.38;1.30;;;;;;;;;;5072484;28;20076;-70
2022/10/25 02:15:04;;;;;;;8.23;1.23;;;;;;;;;;5072460;28;20048;-70
2022/10/25 02:17:32;;;;;;;7.10;1.65;;;;;;;;;;5072669;28;20048;-70
2022/10/25 02:19:59;;;;;;;11.05;1.45;;;;;;;;;;5072705;28;20056;-70
2022/10/25 02:22:27;;;;;;;5.93;1.13;;;;;;;;;;5072653;28;20040;-69
2022/10/25 02:24:54;;;;;;;6.22;1.50;;;;;;;;;;5072280;28;20438;-70
2022/10/25 02:30:43;;;;;;;9.80;1.25;;;;;;;;;;5072133;28;20442;-70
2022/10/25 02:33:10;;;;;;;12.48;1.60;;;;;;;;;;5072329;28;20041;-70
2022/10/25 02:35:37;;;;;;;5.97;1.10;;;;;;;;;;5072194;28;20044;-70
2022/10/25 02:38:03;;;;;;;12.65;1.60;;;;;;;;;;5072338;28;20076;-70
2022/10/25 02:40:30;;;;;;;7.40;1.20;;;;;;;;;;5072043;28;20048;-70
2022/10/25 02:42:56;;;;;;;7.15;1.23;;;;;;;;;;5072226;28;20052;-69
2022/10/25 02:45:22;;;;;;;7.07;1.70;;;;;;;;;;5070365;28;20056;-70
2022/10/25 02:47:49;;;;;;;7.72;1.13;;;;;;;;;;5072249;28;20052;-70
2022/10/25 02:50:15;;;;;;;12.75;1.70;;;;;;;;;;5071819;28;20052;-69
2022/10/25 02:52:42;;;;;;;6.75;1.20;;;;;;;;;;5071772;28;20484;-70
2022/10/25 02:55:08;;;;;;;8.38;1.52;;;;;;;;;;5070580;28;20071;-69
2022/10/25 02:57:35;;;;;;;10.20;1.70;;;;;;;;;;5071707;28;20050;-69
2022/10/25 03:00:05;;;;;;;10.75;1.67;;;;;;;;;;5072063;28;20053;-69
2022/10/25 03:02:32;;;;;;;9.13;1.40;;;;;;;;;;5071547;28;20496;-69
2022/10/25 03:04:58;;;;;;;7.45;1.45;;;;;;;;;;5071802;28;20052;-69
2022/10/25 03:07:25;;;;;;;8.88;1.40;;;;;;;;;;5071784;28;20041;-69
2022/10/25 03:09:51;;;;;;;6.28;1.27;;;;;;;;;;5071528;28;20085;-69
2022/10/25 03:12:17;;;;;;;7.95;1.40;;;;;;;;;;5071821;28;20052;-69
2022/10/25 03:14:44;;;;;;;9.95;1.33;;;;;;;;;;5070503;28;20058;-69
2022/10/25 03:17:10;;;;;;;6.78;1.23;;;;;;;;;;5071793;28;20044;-70
2022/10/25 03:19:36;;;;;;;8.95;1.40;;;;;;;;;;5071468;28;20480;-70
2022/10/25 03:22:03;;;;;;;6.78;1.13;;;;;;;;;;5071534;28;20054;-70
2022/10/25 03:24:29;;;;;;;4.88;0.98;;;;;;;;;;5071490;28;20506;-70
2022/10/25 03:26:55;;;;;;;8.85;1.27;;;;;;;;;;5071722;28;20499;-70
2022/10/25 03:29:22;;;;;;;6.90;1.10;;;;;;;;;;5071448;28;20056;-70
2022/10/25 03:31:48;;;;;;;7.43;1.05;;;;;;;;;;5071451;28;20044;-70
2022/10/25 03:34:14;;;;;;;6.78;1.30;;;;;;;;;;5070308;28;20053;-69
2022/10/25 03:36:41;;;;;;;6.68;1.17;;;;;;;;;;5070175;28;20041;-69
2022/10/25 03:39:08;;;;;;;8.45;1.45;;;;;;;;;;5071340;28;20051;-69
2022/10/25 03:41:35;;;;;;;3.95;1.20;;;;;;;;;;5071644;28;20048;-70
2022/10/25 03:44:01;;;;;;;8.15;1.50;;;;;;;;;;5071232;28;20045;-70
2022/10/25 03:46:27;;;;;;;7.57;1.27;;;;;;;;;;5071457;28;20588;-69
2022/10/25 03:48:54;;;;;;;7.25;1.52;;;;;;;;;;5071235;28;20535;-69
2022/10/25 03:51:20;;;;;;;7.03;0.93;;;;;;;;;;5071103;28;20055;-69
2022/10/25 03:53:46;;;;;;;5.57;1.02;;;;;;;;;;5071316;28;20048;-69
2022/10/25 03:56:13;;;;;;;5.38;1.08;;;;;;;;;;5071424;28;20124;-70
2022/10/25 03:58:39;;;;;;;8.10;1.40;;;;;;;;;;5071111;28;20051;-70
2022/10/25 04:01:09;;;;;;;4.78;1.10;;;;;;;;;;5071183;28;20416;-69
2022/10/25 04:03:36;;;;;;;5.55;1.05;;;;;;;;;;5071462;28;20079;-69
2022/10/25 04:06:02;;;;;;;8.02;0.93;;;;;;;;;;5069849;28;20510;-69
2022/10/25 04:08:28;;;;;;;6.28;0.98;;;;;;;;;;5071048;28;20507;-69
2022/10/25 04:10:55;;;;;;;3.95;1.00;;;;;;;;;;5071317;28;20398;-69
2022/10/25 04:13:21;;;;;;;9.30;1.05;;;;;;;;;;5071272;28;20041;-70
2022/10/25 04:15:47;;;;;;;6.10;1.08;;;;;;;;;;5071162;28;20052;-69
2022/10/25 04:18:14;;;;;;;7.82;0.80;;;;;;;;;;5071234;28;20051;-69
2022/10/25 04:20:40;;;;;;;5.65;1.48;;;;;;;;;;5071686;28;20051;-69
2022/10/25 04:23:06;;;;;;;7.50;1.35;;;;;;;;;;5074783;28;20049;-70
2022/10/25 04:25:33;;;;;;;7.47;1.38;;;;;;;;;;5074784;28;20048;-69
2022/10/25 04:27:59;;;;;;;7.85;1.40;;;;;;;;;;5074674;28;20051;-69
2022/10/25 04:30:25;;;;;;;5.72;1.40;;;;;;;;;;5074640;28;20399;-69
2022/10/25 04:32:52;;;;;;;7.30;0.93;;;;;;;;;;5074630;28;20407;-70
2022/10/25 04:35:18;;;;;;;4.25;0.90;;;;;;;;;;5074286;28;20404;-70
2022/10/25 04:37:44;;;;;;;5.55;1.13;;;;;;;;;;5074601;28;20052;-70
2022/10/25 04:40:11;;;;;;;7.32;1.02;;;;;;;;;;5074539;28;20418;-69
2022/10/25 04:42:37;;;;;;;6.80;1.48;;;;;;;;;;5074372;28;20083;-70
2022/10/25 04:45:05;;;;;;;6.40;1.25;;;;;;;;;;5073982;28;20056;-70
2022/10/25 04:47:31;;;;;;;8.35;1.35;;;;;;;;;;5074158;28;20510;-70
2022/10/25 04:49:58;;;;;;;6.82;1.85;;;;;;;;;;5074072;28;20062;-70
2022/10/25 04:52:25;;;;;;;5.10;1.05;;;;;;;;;;5074235;28;20044;-69
2022/10/25 04:54:51;;;;;;;10.77;1.48;;;;;;;;;;5074030;28;20055;-69
2022/10/25 04:57:17;;;;;;;13.45;1.88;;;;;;;;;;5073899;28;20480;-69
2022/10/25 04:59:44;;;;;;;6.85;1.52;;;;;;;;;;5074225;28;20055;-70
2022/10/25 05:02:11;;;;;;;8.38;1.65;;;;;;;;;;5073806;28;20048;-69
2022/10/25 05:04:37;;;;;;;7.15;1.20;;;;;;;;;;5073736;28;20055;-70
2022/10/25 05:07:04;;;;;;;9.68;1.70;;;;;;;;;;5073977;28;20052;-70
2022/10/25 05:09:30;;;;;;;6.50;0.98;;;;;;;;;;5074073;28;20048;-69
2022/10/25 05:11:56;;;;;;;5.88;1.60;;;;;;;;;;5073664;28;20046;-70
2022/10/25 05:14:23;;;;;;;8.48;1.70;;;;;;;;;;5073771;28;20149;-70
2022/10/25 05:16:49;;;;;;;10.25;1.63;;;;;;;;;;5073633;28;20484;-70
2022/10/25 05:19:15;;;;;;;8.05;1.60;;;;;;;;;;5073511;28;20408;-70
2022/10/25 05:21:42;;;;;;;12.10;1.50;;;;;;;;;;5073798;28;20151;-70
2022/10/25 05:24:08;;;;;;;9.02;1.42;;;;;;;;;;5073731;28;20057;-69
2022/10/25 05:26:34;;;;;;;8.05;1.33;;;;;;;;;;5073667;28;20048;-70
2022/10/25 05:29:01;;;;;;;10.45;1.63;;;;;;;;;;5073761;28;20048;-69
2022/10/25 05:31:30;;;;;;;7.10;1.30;;;;;;;;;;5073168;28;20048;-69
2022/10/25 05:33:58;;;;;;;7.35;1.63;;;;;;;;;;5072261;28;20401;-69
2022/10/25 05:36:25;;;;;;;6.13;1.20;;;;;;;;;;5072322;28;20044;-69
2022/10/25 05:38:51;;;;;;;9.82;1.50;;;;;;;;;;5073456;28;20082;-69
2022/10/25 05:41:18;;;;;;;10.07;1.67;;;;;;;;;;5073081;28;20561;-69
2022/10/25 05:43:44;;;;;;;10.48;1.38;;;;;;;;;;5073053;28;20131;-69
2022/10/25 05:46:12;;;;;;;4.93;1.13;;;;;;;;;;5072915;28;20064;-69
2022/10/25 05:48:39;;;;;;;9.52;1.50;;;;;;;;;;5073213;28;20048;-69
2022/10/25 05:51:11;;;;;;;7.88;1.25;;;;;;;;;;5073169;28;20135;-69
2022/10/25 05:53:58;;;;;;;7.82;1.75;;;;;;;;;;5072746;28;20484;-69
2022/10/25 05:56:28;;;;;;;7.45;1.15;;;;;;;;;;5072827;28;20054;-69
2022/10/25 05:58:57;;;;;;;5.47;1.20;;;;;;;;;;5073302;28;20044;-69
2022/10/25 06:01:27;;;;;;;7.00;1.10;;;;;;;;;;5072778;28;20052;-70
2022/10/25 06:03:54;;;;;;;4.13;0.82;;;;;;;;;;5072708;28;20059;-69
2022/10/25 06:06:21;;;;;;;5.97;1.05;;;;;;;;;;5072853;28;20545;-69
2022/10/25 06:08:48;;;;;;;6.53;1.15;;;;;;;;;;5072664;28;20554;-68
2022/10/25 06:11:18;;;;;;;5.55;1.27;;;;;;;;;;5072405;28;20052;-69
2022/10/25 06:13:45;;;;;;;7.47;1.38;;;;;;;;;;5072708;28;20131;-70
2022/10/25 06:16:12;;;;;;;4.18;1.15;;;;;;;;;;5072405;28;20488;-69
2022/10/25 06:18:39;;;;;;;4.70;1.38;;;;;;;;;;5072519;28;20041;-69
2022/10/25 06:21:13;;;;;;;6.80;1.17;;;;;;;;;;5072659;28;20044;-69
2022/10/25 06:23:39;;;;;;;8.50;1.20;;;;;;;;;;5072275;28;20043;-69
2022/10/25 06:26:17;;;;;;;3.90;1.38;;;;;;;;;;5072252;28;20045;-69
2022/10/25 06:28:43;;;;;;;6.32;1.50;;;;;;;;;;5072317;28;20474;-70
2022/10/25 06:31:11;;;;;;;3.72;1.33;;;;;;;;;;5072205;28;20436;-69
2022/10/25 06:33:38;;;;;;;8.00;2.40;;;;;;;;;;5056857;28;20047;-70
2022/10/25 06:36:06;;;;;;;10.52;3.08;;;;;;;;;;5051631;28;20040;-70
2022/10/25 06:38:32;;;;;;;7.68;2.83;;;;;;;;;;5072033;28;20051;-70
2022/10/25 06:41:00;;;;;;;5.55;3.17;;;;;;;;;;5072248;28;20048;-71
2022/10/25 06:43:26;;;;;;;14.90;4.60;;;;;;;;;;5069714;28;20048;-70
2022/10/25 06:45:53;;;;;;;9.32;3.78;;;;;;;;;;5071786;28;20060;-70
2022/10/25 06:48:20;;;;;;;8.93;3.35;;;;;;;;;;5072134;28;20063;-69
2022/10/25 06:50:46;;;;;;;7.57;3.90;;;;;;;;;;5065022;28;20056;-70
2022/10/25 06:53:17;;;;;;;12.48;4.90;;;;;;;;;;5065026;28;20051;-69
2022/10/25 06:55:45;;;;;;;10.38;4.82;;;;;;;;;;5070780;28;20053;-69
2022/10/25 06:58:12;;;;;;;12.73;4.85;;;;;;;;;;5050794;28;20045;-70
2022/10/25 07:00:38;;;;;;;9.80;5.65;;;;;;;;;;5072003;28;20131;-70
2022/10/25 07:03:05;;;;;;;17.15;9.93;;;;;;;;;;5071721;28;20045;-70
2022/10/25 07:05:31;;;;;;;26.63;18.55;;;;;;;;;;5071639;28;20420;-70
2022/10/25 07:07:57;;;;;;;20.60;13.70;;;;;;;;;;5064426;28;20496;-70
2022/10/25 07:10:24;;;;;;;18.27;11.05;;;;;;;;;;5061756;28;20052;-71
2022/10/25 07:12:50;;;;;;;26.83;11.68;;;;;;;;;;5071428;28;20048;-73
2022/10/25 07:15:16;;;;;;;23.17;10.05;;;;;;;;;;5056152;28;20052;-73
2022/10/25 07:17:48;;;;;;;21.73;10.00;;;;;;;;;;5051078;28;20059;-68
2022/10/25 07:20:14;;;;;;;19.20;8.48;;;;;;;;;;5070893;28;20385;-71
2022/10/25 07:22:41;;;;;;;12.57;6.13;;;;;;;;;;5058948;28;20049;-72
2022/10/25 07:25:07;;;;;;;10.98;5.03;;;;;;;;;;5064188;28;20059;-71
2022/10/25 07:27:39;;;;;;;10.57;4.40;;;;;;;;;;5071484;28;20056;-72
2022/10/25 07:30:05;;;;;;;9.68;4.30;;;;;;;;;;5071462;28;20059;-72
2022/10/25 07:32:32;;;;;;;10.93;4.10;;;;;;;;;;5071513;28;20045;-72
2022/10/25 07:34:58;;;;;;;13.23;4.25;;;;;;;;;;5071720;28;20045;-72
2022/10/25 07:37:24;;;;;;;13.60;4.38;;;;;;;;;;5071593;28;20055;-72
2022/10/25 07:39:51;;;;;;;12.38;5.07;;;;;;;;;;5071518;28;20050;-72
2022/10/25 07:42:17;;;;;;;16.88;5.43;;;;;;;;;;5071523;28;20102;-72
2022/10/25 07:44:43;;;;;;;12.70;6.35;;;;;;;;;;5070044;28;20078;-72
2022/10/25 07:47:15;;;;;;;12.65;4.95;;;;;;;;;;5071328;28;20063;-72
2022/10/25 07:49:41;;;;;;;13.00;7.88;;;;;;;;;;5071428;28;20051;-71
2022/10/25 07:52:07;;;;;;;19.75;12.40;;;;;;;;;;5071191;28;20398;-72
2022/10/25 07:54:34;;;;;;;20.23;7.78;;;;;;;;;;5071101;28;20047;-72
2022/10/25 07:57:00;;;;;;;18.05;9.27;;;;;;;;;;5061553;28;20053;-73
2022/10/25 07:59:27;;;;;;;12.60;4.72;;;;;;;;;;5071296;28;20506;-78
2022/10/25 08:01:53;;;;;;;12.40;5.22;;;;;;;;;;5056681;28;20049;-74
2022/10/25 08:04:19;;;;;;;10.32;5.07;;;;;;;;;;5056357;28;20056;-71
2022/10/25 08:06:46;;;;;;;9.82;4.65;;;;;;;;;;5060587;28;20056;-72
2022/10/25 08:09:13;;;;;;;20.02;5.13;;;;;;;;;;5074643;28;20059;-71
2022/10/25 08:11:58;;;;;;;12.98;3.45;;;;;;;;;;5072581;28;20048;-71
2022/10/25 08:14:24;;;;;;;7.60;3.25;;;;;;;;;;5069886;28;20488;-70
2022/10/25 08:16:51;;;;;;;8.88;2.47;;;;;;;;;;5071270;28;20044;-70
2022/10/25 08:19:17;;;;;;;9.07;2.00;;;;;;;;;;5074088;28;20514;-70
2022/10/25 08:21:44;;;;;;;8.20;1.75;;;;;;;;;;5074405;28;20052;-70
2022/10/25 08:24:10;;;;;;;8.07;2.05;;;;;;;;;;5074296;28;20047;-71
2022/10/25 08:26:36;;;;;;;6.55;1.40;;;;;;;;;;5074302;28;20051;-71
2022/10/25 08:29:03;;;;;;;9.02;1.90;;;;;;;;;;5074301;28;20048;-70
2022/10/25 08:31:29;;;;;;;6.40;1.05;;;;;;;;;;5073871;28;20056;-71
2022/10/25 08:33:55;;;;;;;5.65;1.52;;;;;;;;;;5074319;28;20063;-70
2022/10/25 08:36:24;;;;;;;5.18;1.20;;;;;;;;;;5074381;28;20081;-70
2022/10/25 08:38:50;;;;;;;6.22;1.10;;;;;;;;;;5074344;28;20047;-71
2022/10/25 08:41:37;;;;;;;5.78;0.80;;;;;;;;;;5073708;28;20538;-69
2022/10/25 08:44:04;;;;;;;6.10;1.33;;;;;;;;;;5064363;28;20060;-70
2022/10/25 08:46:33;;;;;;;5.15;1.08;;;;;;;;;;5053385;28;20090;-70
2022/10/25 08:49:08;;;;;;;6.55;1.40;;;;;;;;;;5067748;28;20412;-70
2022/10/25 08:51:39;;;;;;;8.02;1.63;;;;;;;;;;5067233;28;20044;-70
2022/10/25 08:54:14;;;;;;;6.78;1.45;;;;;;;;;;5073818;28;20045;-70
2022/10/25 08:56:41;;;;;;;6.35;1.13;;;;;;;;;;5073551;28;20051;-71
2022/10/25 08:59:30;;;;;;;10.20;1.35;;;;;;;;;;5070401;28;20052;-71
2022/10/25 09:01:58;;;;;;;7.38;1.25;;;;;;;;;;5054017;28;20055;-71
2022/10/25 09:04:25;;;;;;;7.57;1.50;;;;;;;;;;5060370;28;20049;-71
2022/10/25 09:07:00;;;;;;;5.07;1.30;;;;;;;;;;5073513;28;20048;-71
2022/10/25 09:09:45;;;;;;;11.85;1.92;;;;;;;;;;5073789;28;20063;-72
2022/10/25 09:12:20;;;;;;;6.68;1.50;;;;;;;;;;5071562;28;20427;-72
2022/10/25 09:15:03;;;;;;;5.55;1.00;;;;;;;;;;5063630;28;20051;-69
2022/10/25 09:17:49;;;;;;;8.50;1.58;;;;;;;;;;5051318;28;20045;-72
2022/10/25 09:20:34;;;;;;;5.45;1.38;;;;;;;;;;5053821;28;20072;-72
2022/10/25 09:23:07;;;;;;;6.57;1.50;;;;;;;;;;5053355;28;20052;-70
2022/10/25 09:25:42;;;;;;;7.95;1.40;;;;;;;;;;5052716;28;20570;-72
2022/10/25 09:28:15;;;;;;;10.43;1.27;;;;;;;;;;5069312;28;20059;-71
2022/10/25 09:30:42;;;;;;;7.13;1.25;;;;;;;;;;5052329;28;20507;-71
2022/10/25 09:33:13;;;;;;;5.38;1.40;;;;;;;;;;5053444;28;20056;-72
2022/10/25 09:35:45;;;;;;;12.27;1.90;;;;;;;;;;5071826;28;20051;-72
2022/10/25 09:38:17;;;;;;;6.88;1.40;;;;;;;;;;5071667;28;20044;-72
2022/10/25 09:40:49;;;;;;;8.48;1.60;;;;;;;;;;5063371;28;20068;-71
2022/10/25 09:43:17;;;;;;;7.53;1.40;;;;;;;;;;5062966;28;20055;-72
2022/10/25 09:45:47;;;;;;;8.38;1.50;;;;;;;;;;5072319;28;20064;-72
2022/10/25 09:48:19;;;;;;;7.55;1.60;;;;;;;;;;5058113;28;20049;-72
2022/10/25 09:50:49;;;;;;;5.13;1.10;;;;;;;;;;5065990;28;20056;-72
2022/10/25 09:53:16;;;;;;;7.45;1.48;;;;;;;;;;5068969;28;20059;-72
2022/10/25 09:55:56;;;;;;;10.73;1.75;;;;;;;;;;5072658;28;20056;-72
2022/10/25 09:58:25;;;;;;;6.30;1.38;;;;;;;;;;5072145;28;20049;-72
2022/10/25 10:00:52;;;;;;;6.65;1.20;;;;;;;;;;5072465;28;20045;-74
2022/10/25 10:03:19;;;;;;;5.80;1.15;;;;;;;;;;5071211;28;20049;-72
2022/10/25 10:05:49;;;;;;;6.40;1.50;;;;;;;;;;5072367;28;20697;-72
2022/10/25 10:08:15;;;;;;;7.05;1.25;;;;;;;;;;5072068;28;20045;-73
2022/10/25 10:10:44;;;;;;;6.43;1.10;;;;;;;;;;5071151;28;20044;-72
2022/10/25 10:13:14;;;;;;;6.15;1.10;;;;;;;;;;5069906;28;20048;-72
2022/10/25 10:16:01;;;;;;;6.57;1.02;;;;;;;;;;5072022;28;20415;-72
2022/10/25 10:18:27;;;;;;;8.50;1.35;;;;;;;;;;5071654;28;20381;-73
2022/10/25 10:21:14;;;;;;;8.48;1.00;;;;;;;;;;5071822;28;20051;-73
2022/10/25 10:23:40;;;;;;;10.45;1.65;;;;;;;;;;5070405;28;20143;-72
2022/10/25 10:26:13;;;;;;;9.68;1.25;;;;;;;;;;5071950;28;20056;-73
2022/10/25 10:28:43;;;;;;;5.78;1.20;;;;;;;;;;5071791;28;20051;-73
2022/10/25 10:31:10;;;;;;;4.55;0.88;;;;;;;;;;5051250;28;20060;-72
2022/10/25 10:33:37;;;;;;;6.35;1.17;;;;;;;;;;5069026;28;20041;-71
2022/10/25 10:36:20;;;;;;;5.15;0.95;;;;;;;;;;5071825;28;20048;-70
2022/10/25 10:38:46;;;;;;;5.10;1.10;;;;;;;;;;5071760;28;20048;-71
2022/10/25 10:41:14;;;;;;;5.53;1.13;;;;;;;;;;5070294;28;20048;-71
2022/10/25 10:43:40;;;;;;;8.25;1.15;;;;;;;;;;5070061;28;20507;-71
2022/10/25 10:46:08;;;;;;;7.70;1.13;;;;;;;;;;5069783;28;20480;-73
2022/10/25 10:48:37;;;;;;;7.20;1.10;;;;;;;;;;5053478;28;20412;-73
2022/10/25 10:51:09;;;;;;;6.85;1.10;;;;;;;;;;5070113;28;20048;-73
2022/10/25 10:53:56;;;;;;;5.95;1.08;;;;;;;;;;5071068;28;20496;-74
2022/10/25 10:56:22;;;;;;;4.57;0.90;;;;;;;;;;5071402;28;20468;-74
2022/10/25 10:58:49;;;;;;;3.55;0.80;;;;;;;;;;5071415;28;20048;-72
2022/10/25 11:01:30;;;;;;;10.98;1.60;;;;;;;;;;5065780;28;20134;-73
2022/10/25 11:03:58;;;;;;;4.35;1.00;;;;;;;;;;5070226;28;20075;-74
2022/10/25 11:06:27;;;;;;;4.10;0.80;;;;;;;;;;5050805;28;20118;-74
2022/10/25 11:09:03;;;;;;;5.30;0.80;;;;;;;;;;5050755;28;20052;-74
2022/10/25 11:11:29;;;;;;;6.82;0.90;;;;;;;;;;5055118;28;20184;-73
2022/10/25 11:13:56;;;;;;;7.22;1.05;;;;;;;;;;5071301;28;20075;-73
2022/10/25 11:16:39;;;;;;;5.53;0.73;;;;;;;;;;5071004;28;20040;-72
2022/10/25 11:19:17;;;;;;;5.80;1.20;;;;;;;;;;5054077;28;20051;-74
2022/10/25 11:21:47;;;;;;;6.00;0.88;;;;;;;;;;5069359;28;20060;-73
2022/10/25 11:24:26;;;;;;;3.35;0.77;;;;;;;;;;5070385;28;20053;-74
2022/10/25 11:27:08;;;;;;;2.47;0.68;;;;;;;;;;5064102;28;20060;-73
2022/10/25 11:29:42;;;;;;;4.18;1.15;;;;;;;;;;5062070;28;20497;-74
2022/10/25 11:32:27;;;;;;;4.57;0.80;;;;;;;;;;5062221;28;20052;-73
2022/10/25 11:34:56;;;;;;;3.38;0.85;;;;;;;;;;5073955;28;20453;-73
2022/10/25 11:37:30;;;;;;;5.03;1.10;;;;;;;;;;5074548;28;20045;-73
2022/10/25 11:40:28;;;;;;;4.05;1.00;;;;;;;;;;5074404;28;20510;-74
2022/10/25 11:43:07;;;;;;;5.43;0.82;;;;;;;;;;5040841;28;20048;-72
2022/10/25 11:45:37;;;;;;;4.75;0.88;;;;;;;;;;5074679;28;20049;-73
2022/10/25 11:48:22;;;;;;;3.92;0.63;;;;;;;;;;5075081;28;20055;-74
2022/10/25 11:50:48;;;;;;;3.45;0.63;;;;;;;;;;5068129;28;20055;-72
2022/10/25 11:53:22;;;;;;;5.65;0.57;;;;;;;;;;5074641;28;20052;-72
2022/10/25 11:55:51;;;;;;;5.78;0.88;;;;;;;;;;5069840;28;20046;-73
2022/10/25 11:58:21;;;;;;;4.55;0.70;;;;;;;;;;5060495;28;20049;-79
2022/10/25 12:01:09;;;;;;;3.05;0.82;;;;;;;;;;5053193;28;20076;-77
2022/10/25 12:03:36;;;;;;;5.05;0.80;;;;;;;;;;5054885;28;20060;-73
2022/10/25 12:06:05;;;;;;;5.95;0.73;;;;;;;;;;5054527;28;20052;-75
2022/10/25 12:08:42;;;;;;;4.80;0.73;;;;;;;;;;5054778;28;20048;-76
2022/10/25 12:11:20;;;;;;;4.85;0.55;;;;;;;;;;5054660;28;20060;-76
2022/10/25 12:13:49;;;;;;;4.15;0.98;;;;;;;;;;5054222;28;20049;-76
2022/10/25 12:16:17;;;;;;;3.75;0.93;;;;;;;;;;5053957;28;20060;-74
2022/10/25 12:18:48;;;;;;;3.58;0.60;;;;;;;;;;5052124;28;20511;-74
2022/10/25 12:21:18;;;;;;;5.85;1.13;;;;;;;;;;5053470;28;20059;-78
2022/10/25 12:23:49;;;;;;;4.07;0.80;;;;;;;;;;5054226;28;20063;-76
2022/10/25 12:26:27;;;;;;;3.22;0.50;;;;;;;;;;5051394;28;20485;-73
2022/10/25 12:28:55;;;;;;;4.15;0.63;;;;;;;;;;5061648;28;20045;-74
2022/10/25 12:31:24;;;;;;;3.67;0.73;;;;;;;;;;5067857;28;20056;-74
2022/10/25 12:33:54;;;;;;;4.07;0.65;;;;;;;;;;5073847;28;20052;-74
2022/10/25 12:36:27;;;;;;;5.20;0.80;;;;;;;;;;5073903;28;20040;-74
2022/10/25 12:38:54;;;;;;;4.22;0.68;;;;;;;;;;5056840;28;20048;-75
2022/10/25 12:41:22;;;;;;;3.22;0.80;;;;;;;;;;5070444;28;20053;-75
2022/10/25 12:43:48;;;;;;;5.75;0.80;;;;;;;;;;5072777;28;20087;-75
2022/10/25 12:46:27;;;;;;;2.58;0.70;;;;;;;;;;5052913;28;20421;-74
2022/10/25 12:48:54;;;;;;;1.50;0.50;;;;;;;;;;5048134;28;20051;-75
2022/10/25 12:51:20;;;;;;;3.93;0.70;;;;;;;;;;5063401;28;20045;-75
2022/10/25 12:53:49;;;;;;;4.07;0.87;;;;;;;;;;5072953;28;20297;-76
2022/10/25 12:56:15;;;;;;;2.92;0.70;;;;;;;;;;5072235;28;20049;-75
2022/10/25 12:58:51;;;;;;;3.70;0.70;;;;;;;;;;5072088;28;20047;-73
2022/10/25 13:01:32;;;;;;;3.30;0.65;;;;;;;;;;5073308;28;20046;-74
2022/10/25 13:04:07;;;;;;;4.22;0.77;;;;;;;;;;5071716;28;20060;-75
2022/10/25 13:06:33;;;;;;;4.47;0.70;;;;;;;;;;5073557;28;20055;-75
2022/10/25 13:09:26;;;;;;;4.80;0.53;;;;;;;;;;5072078;28;20221;-75
2022/10/25 13:12:16;;;;;;;4.50;0.88;;;;;;;;;;5058471;28;20055;-75
2022/10/25 13:14:44;;;;;;;5.85;1.02;;;;;;;;;;5046104;28;20041;-75
2022/10/25 13:17:16;;;;;;;3.30;0.75;;;;;;;;;;5071086;28;20045;-75
2022/10/25 13:19:46;;;;;;;5.05;1.05;;;;;;;;;;5073220;28;20132;-75
2022/10/25 13:22:28;;;;;;;4.20;0.90;;;;;;;;;;5070206;28;20583;-75
2022/10/25 13:24:58;;;;;;;4.25;0.80;;;;;;;;;;5060285;28;20048;-73
2022/10/25 13:27:31;;;;;;;3.35;0.80;;;;;;;;;;5072985;28;20522;-74
2022/10/25 13:30:00;;;;;;;3.63;0.90;;;;;;;;;;5072916;28;20048;-75
2022/10/25 13:32:28;;;;;;;4.05;1.00;;;;;;;;;;5073170;28;20132;-75
2022/10/25 13:34:57;;;;;;;2.45;0.50;;;;;;;;;;5072655;28;20048;-75
2022/10/25 13:37:30;;;;;;;3.78;0.52;;;;;;;;;;5071505;28;20050;-75
2022/10/25 13:39:57;;;;;;;2.67;0.60;;;;;;;;;;5066467;28;20045;-74
2022/10/25 13:42:34;;;;;;;2.70;0.70;;;;;;;;;;5072924;28;20051;-74
2022/10/25 13:45:03;;;;;;;4.68;0.70;;;;;;;;;;5072509;28;20063;-74
2022/10/25 13:47:46;;;;;;;4.00;0.68;;;;;;;;;;5072817;28;20404;-74
2022/10/25 13:50:33;;;;;;;4.35;0.60;;;;;;;;;;5072700;28;20051;-74
2022/10/25 13:53:02;;;;;;;3.72;0.60;;;;;;;;;;5071904;28;20074;-75
2022/10/25 13:55:33;;;;;;;4.35;0.60;;;;;;;;;;5058968;28;20045;-74
2022/10/25 13:58:00;;;;;;;5.03;1.00;;;;;;;;;;5072546;28;20056;-74
2022/10/25 14:00:31;;;;;;;5.25;0.90;;;;;;;;;;5061916;28;20053;-74
2022/10/25 14:03:07;;;;;;;3.00;0.55;;;;;;;;;;5055873;28;20049;-74
2022/10/25 14:05:52;;;;;;;3.60;0.88;;;;;;;;;;5060914;28;20124;-74
2022/10/25 14:08:21;;;;;;;5.85;0.70;;;;;;;;;;5060279;28;20415;-74
2022/10/25 14:10:48;;;;;;;7.22;1.17;;;;;;;;;;5072422;28;20059;-75
2022/10/25 14:13:20;;;;;;;2.70;0.60;;;;;;;;;;5072273;28;20442;-74
2022/10/25 14:15:58;;;;;;;2.78;0.55;;;;;;;;;;5072322;28;20052;-75
2022/10/25 14:18:27;;;;;;;5.60;0.80;;;;;;;;;;5069827;28;20086;-74
2022/10/25 14:21:04;;;;;;;3.97;0.80;;;;;;;;;;5072068;28;20059;-74
2022/10/25 14:23:32;;;;;;;;;;;;;;;;;;5071746;28;20601;-75
2022/10/25 14:25:59;;;;;;;5.78;0.90;;;;;;;;;;5049871;28;20425;-76
2022/10/25 14:28:26;;;;;;;3.55;0.77;;;;;;;;;;5064203;28;20055;-76
2022/10/25 14:30:53;;;;;;;;;;;;;;;;;;5070887;28;20055;-76
2022/10/25 14:33:20;;;;;;;6.97;0.80;;;;;;;;;;5071342;28;19954;-73
2022/10/25 14:35:51;;;;;;;6.38;0.80;;;;;;;;;;5041000;28;20056;-75
2022/10/25 14:38:40;;;;;;;3.05;0.70;;;;;;;;;;5062772;28;20051;-75
2022/10/25 14:41:11;;;;;;;4.68;1.00;;;;;;;;;;5068791;28;20066;-76
2022/10/25 14:43:37;;;;;;;5.55;1.20;;;;;;;;;;5071902;28;20415;-75
2022/10/25 14:46:14;;;;;;;8.85;0.95;;;;;;;;;;5071732;28;20056;-75
2022/10/25 14:48:42;;;;;;;5.93;0.82;;;;;;;;;;5051794;28;20413;-77
2022/10/25 14:51:13;;;;;;;6.97;1.05;;;;;;;;;;5052015;28;20147;-75
2022/10/25 14:53:58;;;;;;;8.27;1.30;;;;;;;;;;5056322;28;20511;-76
2022/10/25 14:56:30;;;;;;;6.93;1.20;;;;;;;;;;5069819;28;20045;-75
2022/10/25 14:58:58;;;;;;;5.47;1.02;;;;;;;;;;5056048;28;20040;-75
2022/10/25 15:01:24;;;;;;;;;;;;;;;;;;5067041;28;20044;-76
2022/10/25 15:03:53;;;;;;;6.38;1.30;;;;;;;;;;5070822;28;19970;-76